< < Back
Terminal Aerodrome Forecast


Current Version              Previous Versions:   1  2  3  4  5  6  7  8  9  

Terminal Aerodrome Forecast

470
FTUS44 KMOB 191139
TAFMOB
TAF
KMOB 191139Z 1912/2012 22003KT P6SM BKN023 BKN028
     FM191800 20015KT P6SM FEW050=



Latest METAR

695
SAUS80 KWBC 200100
MTRMOB
METAR KMOB 200056Z 18007KT 10SM CLR 23/19 A2978 RMK AO2 SLP083
T02280189


USA.gov is the U.S. government's official web portal to all federal, state and local government web resources and services.